createdAt,value
2023-05-10T00:00:08.480Z,9.73
2023-05-10T00:02:36.813Z,10.10
2023-05-10T00:05:07.720Z,9.00
2023-05-10T00:07:35.959Z,10.03
2023-05-10T00:10:04.376Z,11.60
2023-05-10T00:12:32.661Z,10.40
2023-05-10T00:15:00.968Z,11.80
2023-05-10T00:17:29.328Z,10.80
2023-05-10T00:19:57.726Z,10.03
2023-05-10T00:22:28.089Z,10.47
2023-05-10T00:24:56.333Z,11.03
2023-05-10T00:27:24.715Z,10.77
2023-05-10T00:29:53.014Z,10.93
2023-05-10T00:32:21.563Z,11.10
2023-05-10T00:34:49.939Z,11.50
2023-05-10T00:37:18.258Z,10.60
2023-05-10T00:39:48.323Z,11.97
2023-05-10T00:42:16.937Z,11.93
2023-05-10T00:44:45.310Z,12.13
2023-05-10T00:47:13.713Z,11.77
2023-05-10T00:49:42.944Z,11.77
2023-05-10T00:52:11.705Z,12.90
2023-05-10T00:54:40.212Z,11.37
2023-05-10T00:57:10.132Z,11.37
2023-05-10T00:59:38.584Z,12.40
2023-05-10T01:02:08.532Z,12.67
2023-05-10T01:04:38.102Z,13.30
2023-05-10T01:07:06.558Z,11.33
2023-05-10T01:09:35.793Z,12.20
2023-05-10T01:12:04.920Z,12.87
2023-05-10T01:14:35.316Z,12.27
2023-05-10T01:17:04.242Z,12.80
2023-05-10T01:19:35.817Z,12.10
2023-05-10T01:22:13.306Z,15.17
2023-05-10T01:25:02.997Z,14.07
2023-05-10T01:28:09.833Z,12.37
2023-05-10T01:31:06.922Z,13.80
2023-05-10T01:33:41.143Z,12.80
2023-05-10T01:36:18.014Z,12.80
2023-05-10T01:38:52.324Z,11.30
2023-05-10T01:41:27.055Z,11.80
2023-05-10T01:44:02.765Z,11.60
2023-05-10T01:46:37.056Z,11.70
2023-05-10T01:49:12.603Z,11.20
2023-05-10T01:51:47.164Z,11.37
2023-05-10T01:54:19.129Z,11.40
2023-05-10T01:56:49.875Z,10.77
2023-05-10T01:59:21.280Z,11.40
2023-05-10T02:01:50.694Z,11.47
2023-05-10T02:04:23.907Z,9.90
2023-05-10T02:06:55.087Z,10.67
2023-05-10T02:09:25.458Z,10.40
2023-05-10T02:11:55.032Z,9.87
2023-05-10T02:14:25.344Z,10.87
2023-05-10T02:16:56.370Z,10.60
2023-05-10T02:19:27.142Z,11.60
2023-05-10T02:21:57.298Z,11.30
2023-05-10T02:24:27.293Z,10.20
2023-05-10T02:26:57.736Z,9.60
2023-05-10T02:29:28.053Z,11.57
2023-05-10T02:31:58.996Z,10.70
2023-05-10T02:34:30.143Z,10.87
2023-05-10T02:36:59.603Z,10.47
2023-05-10T02:39:30.625Z,10.73
2023-05-10T02:42:00.340Z,10.90
2023-05-10T02:44:32.012Z,11.50
2023-05-10T02:47:00.968Z,10.00
2023-05-10T02:49:30.774Z,10.50
2023-05-10T02:52:03.270Z,10.33
2023-05-10T02:54:35.114Z,10.67
2023-05-10T02:57:06.545Z,9.50
2023-05-10T02:59:35.337Z,9.53
2023-05-10T03:02:05.185Z,8.80
2023-05-10T03:04:35.276Z,8.73
2023-05-10T03:07:04.098Z,8.23
2023-05-10T03:09:33.161Z,9.10
2023-05-10T03:12:06.138Z,9.07
2023-05-10T03:14:47.585Z,8.63
2023-05-10T03:17:24.962Z,8.27
2023-05-10T03:19:57.101Z,9.53
2023-05-10T03:22:30.351Z,8.07
2023-05-10T03:25:00.050Z,9.73
2023-05-10T03:27:30.214Z,9.23
2023-05-10T03:29:59.872Z,10.53
2023-05-10T03:32:29.134Z,8.93
2023-05-10T03:34:58.900Z,9.80
2023-05-10T03:37:27.118Z,11.20
2023-05-10T03:39:55.359Z,9.90
2023-05-10T03:42:23.660Z,9.77
2023-05-10T03:44:51.947Z,10.13
2023-05-10T03:47:20.833Z,9.97
2023-05-10T03:49:49.231Z,9.80
2023-05-10T03:52:19.097Z,8.93
2023-05-10T03:54:47.459Z,10.27
2023-05-10T03:57:15.866Z,10.40
2023-05-10T03:59:44.095Z,10.20
2023-05-10T04:02:12.319Z,9.23
2023-05-10T04:04:40.578Z,9.67
2023-05-10T04:07:08.873Z,9.80
2023-05-10T04:09:38.477Z,10.53
2023-05-10T04:12:09.451Z,9.70
2023-05-10T04:14:39.276Z,11.77
2023-05-10T04:17:07.679Z,11.80
2023-05-10T04:19:36.232Z,11.87
2023-05-10T04:22:05.133Z,12.50
2023-05-10T04:24:33.417Z,12.70
2023-05-10T04:27:03.443Z,11.77
2023-05-10T04:29:31.906Z,14.30
2023-05-10T04:32:00.138Z,13.40
2023-05-10T04:34:28.356Z,13.20
2023-05-10T04:36:56.839Z,10.90
2023-05-10T04:39:25.151Z,13.30
2023-05-10T04:41:53.967Z,12.87
2023-05-10T04:44:23.899Z,13.73
2023-05-10T04:46:52.336Z,13.40
2023-05-10T04:49:21.088Z,14.70
2023-05-10T04:51:49.808Z,12.93
2023-05-10T04:54:18.389Z,13.93
2023-05-10T04:56:49.268Z,14.03
2023-05-10T04:59:18.353Z,13.03
2023-05-10T05:01:48.705Z,13.70
2023-05-10T05:04:17.083Z,16.20
2023-05-10T05:06:45.828Z,14.10
2023-05-10T05:09:14.082Z,13.00
2023-05-10T05:14:14.920Z,13.97
2023-05-10T05:16:43.062Z,12.83
2023-05-10T05:19:12.607Z,13.40
2023-05-10T05:21:40.760Z,13.40
2023-05-10T05:24:09.473Z,13.40
2023-05-10T05:26:37.702Z,12.57
2023-05-10T05:29:05.907Z,14.03
2023-05-10T05:31:34.116Z,12.43
2023-05-10T05:34:02.437Z,13.53
2023-05-10T05:36:32.361Z,14.13
2023-05-10T05:39:00.759Z,13.90
2023-05-10T05:41:28.864Z,14.20
2023-05-10T05:43:57.036Z,13.83
2023-05-10T05:46:25.246Z,15.33
2023-05-10T05:48:53.459Z,15.50
2023-05-10T05:51:21.603Z,15.57
2023-05-10T05:53:51.181Z,13.17
2023-05-10T05:56:25.023Z,14.03
2023-05-10T05:58:53.298Z,13.80
2023-05-10T06:01:22.028Z,14.27
2023-05-10T06:03:51.877Z,14.33
2023-05-10T06:06:21.548Z,13.90
2023-05-10T06:08:51.081Z,13.63
2023-05-10T06:11:19.224Z,13.63
2023-05-10T06:13:48.027Z,14.90
2023-05-10T06:16:16.194Z,14.73
2023-05-10T06:18:44.409Z,15.20
2023-05-10T06:21:12.606Z,14.73
2023-05-10T06:23:40.768Z,13.83
2023-05-10T06:26:10.942Z,13.77
2023-05-10T06:28:40.031Z,13.70
2023-05-10T06:31:08.517Z,12.30
2023-05-10T06:33:36.758Z,14.30
2023-05-10T06:36:05.479Z,12.77
2023-05-10T06:38:34.300Z,14.10
2023-05-10T06:41:02.670Z,13.17
2023-05-10T06:43:32.180Z,13.97
2023-05-10T06:46:00.570Z,13.20
2023-05-10T06:48:29.111Z,12.93
2023-05-10T06:50:57.315Z,15.13
2023-05-10T06:53:25.447Z,14.13
2023-05-10T06:55:53.614Z,13.00
2023-05-10T06:58:21.737Z,12.27
2023-05-10T07:00:51.657Z,14.00
2023-05-10T07:03:20.212Z,13.67
2023-05-10T07:05:48.380Z,13.23
2023-05-10T07:08:16.561Z,13.27
2023-05-10T07:10:44.723Z,14.23
2023-05-10T07:13:12.920Z,14.07
2023-05-10T07:15:41.172Z,13.90
2023-05-10T07:18:10.715Z,14.30
2023-05-10T07:20:38.960Z,13.37
2023-05-10T07:23:07.131Z,12.50
2023-05-10T07:25:35.342Z,14.07
2023-05-10T07:28:03.504Z,13.33
2023-05-10T07:30:31.738Z,13.87
2023-05-10T07:33:00.559Z,12.90
2023-05-10T07:35:30.154Z,12.47
2023-05-10T07:37:58.664Z,14.10
2023-05-10T07:40:26.898Z,13.63
2023-05-10T07:42:55.040Z,12.23
2023-05-10T07:45:23.905Z,13.43
2023-05-10T07:47:52.157Z,13.53
2023-05-10T07:50:20.362Z,11.77
2023-05-10T07:52:49.853Z,12.33
2023-05-10T07:55:20.134Z,10.00
2023-05-10T07:57:48.304Z,9.70
2023-05-10T08:00:19.768Z,9.97
2023-05-10T08:02:48.279Z,9.27
2023-05-10T08:05:16.900Z,10.23
2023-05-10T08:07:45.406Z,10.07
2023-05-10T08:10:14.982Z,9.10
2023-05-10T08:12:43.119Z,7.50
2023-05-10T08:15:12.279Z,7.93
2023-05-10T08:17:40.648Z,8.57
2023-05-10T08:20:09.546Z,7.37
2023-05-10T08:22:38.372Z,7.60
2023-05-10T08:25:07.644Z,6.97
2023-05-10T08:27:37.118Z,8.30
2023-05-10T08:30:06.004Z,6.47
2023-05-10T08:32:34.188Z,4.53
2023-05-10T08:35:02.318Z,3.80
2023-05-10T08:37:33.194Z,3.77
2023-05-10T08:40:01.421Z,3.60
2023-05-10T08:42:32.441Z,4.00
2023-05-10T08:45:02.559Z,5.00
2023-05-10T08:47:31.801Z,5.20
2023-05-10T08:50:02.056Z,5.67
2023-05-10T08:52:31.958Z,6.30
2023-05-10T08:55:00.595Z,7.10
2023-05-10T08:57:28.914Z,7.40
2023-05-10T08:59:57.073Z,6.77
2023-05-10T09:02:27.650Z,7.10
2023-05-10T09:04:55.919Z,6.07
2023-05-10T09:07:24.337Z,6.50
2023-05-10T09:09:53.588Z,7.50
2023-05-10T09:12:21.763Z,6.60
2023-05-10T09:14:51.596Z,6.90
2023-05-10T09:17:20.022Z,6.53
2023-05-10T09:19:49.513Z,5.40
2023-05-10T09:22:18.339Z,5.53
2023-05-10T09:24:46.828Z,4.60
2023-05-10T09:27:14.950Z,4.37
2023-05-10T09:29:44.607Z,4.03
2023-05-10T09:32:13.884Z,4.17
2023-05-10T09:34:43.199Z,4.77
2023-05-10T09:37:12.736Z,3.17
2023-05-10T09:39:42.263Z,3.70
2023-05-10T09:42:11.962Z,4.80
2023-05-10T09:44:41.818Z,4.67
2023-05-10T09:47:10.459Z,7.10
2023-05-10T09:49:38.572Z,7.10
2023-05-10T09:52:08.177Z,9.50
2023-05-10T09:54:37.848Z,8.23
2023-05-10T09:57:06.189Z,10.93
2023-05-10T09:59:36.730Z,10.13
2023-05-10T10:02:05.052Z,9.37
2023-05-10T10:04:33.606Z,10.23
2023-05-10T10:07:03.743Z,7.60
2023-05-10T10:09:32.394Z,7.07
2023-05-10T10:12:02.883Z,8.13
2023-05-10T10:14:31.373Z,6.60
2023-05-10T10:19:36.040Z,6.80
2023-05-10T10:22:04.500Z,6.37
2023-05-10T10:24:32.604Z,6.00
2023-05-10T10:27:21.551Z,5.40
2023-05-10T10:30:01.421Z,5.70
2023-05-10T10:32:39.885Z,4.87
2023-05-10T10:35:10.322Z,5.10
2023-05-10T10:37:46.597Z,5.33
2023-05-10T10:40:28.290Z,6.80
2023-05-10T10:42:58.736Z,6.90
2023-05-10T10:45:28.402Z,5.77
2023-05-10T10:48:23.965Z,7.07
2023-05-10T10:50:59.593Z,6.53
2023-05-10T10:53:29.550Z,5.20
2023-05-10T10:56:10.155Z,5.30
2023-05-10T10:58:40.988Z,6.10
2023-05-10T11:01:14.156Z,4.83
2023-05-10T11:03:43.068Z,4.90
2023-05-10T11:06:11.303Z,4.83
2023-05-10T11:08:45.808Z,4.93
2023-05-10T11:11:16.696Z,5.67
2023-05-10T11:13:50.910Z,7.93
2023-05-10T11:16:21.046Z,3.60
2023-05-10T11:19:11.247Z,5.93
2023-05-10T11:21:47.538Z,2.90
2023-05-10T11:24:17.078Z,2.70
2023-05-10T11:26:45.517Z,2.03
2023-05-10T11:29:16.483Z,2.73
2023-05-10T11:31:45.993Z,2.87
2023-05-10T11:34:24.603Z,2.80
2023-05-10T11:36:54.761Z,2.20
2023-05-10T11:39:23.321Z,2.43
2023-05-10T11:41:51.639Z,2.57
2023-05-10T11:44:21.331Z,2.70
2023-05-10T11:46:50.712Z,2.23
2023-05-10T11:49:19.057Z,2.10
2023-05-10T11:51:48.050Z,2.40
2023-05-10T11:54:16.286Z,2.10
2023-05-10T11:56:44.432Z,1.67
2023-05-10T11:59:12.545Z,1.10
2023-05-10T12:01:43.495Z,1.40
2023-05-10T12:04:12.495Z,1.20
2023-05-10T12:06:43.352Z,3.80
2023-05-10T12:09:11.494Z,1.60
2023-05-10T12:11:43.499Z,1.23
2023-05-10T12:14:12.906Z,1.20
2023-05-10T12:16:42.529Z,1.37
2023-05-10T12:19:10.949Z,1.30
2023-05-10T12:21:39.726Z,1.20
2023-05-10T12:24:08.047Z,1.30
2023-05-10T12:26:38.002Z,1.73
2023-05-10T12:29:16.498Z,1.63
2023-05-10T12:31:59.491Z,3.70
2023-05-10T12:34:28.468Z,1.77
2023-05-10T12:36:57.368Z,2.40
2023-05-10T12:39:25.934Z,1.20
2023-05-10T12:41:54.477Z,1.23
2023-05-10T12:44:22.749Z,0.80
2023-05-10T12:46:50.953Z,1.53
2023-05-10T12:49:20.612Z,1.50
2023-05-10T12:51:48.765Z,1.50
2023-05-10T12:54:16.896Z,1.70
2023-05-10T12:56:45.484Z,1.17
2023-05-10T12:59:13.600Z,1.40
2023-05-10T13:01:41.828Z,1.33
2023-05-10T13:04:10.003Z,1.40
2023-05-10T13:06:39.532Z,1.50
2023-05-10T13:09:07.994Z,1.07
2023-05-10T13:11:36.258Z,1.27
2023-05-10T13:14:05.158Z,1.00
2023-05-10T13:16:33.775Z,1.20
2023-05-10T13:19:02.072Z,0.93
2023-05-10T13:21:30.661Z,1.13
2023-05-10T13:24:00.995Z,1.33
2023-05-10T13:26:29.431Z,1.20
2023-05-10T13:28:57.656Z,1.13
2023-05-10T13:31:25.887Z,1.07
2023-05-10T13:33:53.984Z,0.90
2023-05-10T13:36:22.175Z,1.20
2023-05-10T13:38:50.271Z,0.83
2023-05-10T13:41:19.941Z,0.97
2023-05-10T13:43:49.599Z,0.50
2023-05-10T13:46:17.782Z,0.83
2023-05-10T13:48:45.978Z,0.70
2023-05-10T13:51:14.236Z,0.90
2023-05-10T13:53:42.436Z,0.93
2023-05-10T13:56:10.567Z,0.70
2023-05-10T13:58:40.068Z,0.70
2023-05-10T14:01:08.721Z,0.60
2023-05-10T14:03:36.895Z,0.70
2023-05-10T14:06:05.451Z,0.97
2023-05-10T14:08:33.601Z,1.13
2023-05-10T14:11:01.723Z,0.77
2023-05-10T14:13:30.085Z,0.80
2023-05-10T14:16:01.517Z,0.97
2023-05-10T14:18:29.889Z,0.60
2023-05-10T14:20:58.112Z,1.00
2023-05-10T14:23:26.731Z,0.67
2023-05-10T14:25:55.091Z,0.53
2023-05-10T14:28:24.525Z,0.80
2023-05-10T14:30:53.084Z,0.70
2023-05-10T14:33:22.785Z,0.83
2023-05-10T14:35:51.202Z,0.90
2023-05-10T14:38:19.472Z,0.80
2023-05-10T14:40:47.997Z,0.90
2023-05-10T14:43:16.179Z,0.87
2023-05-10T14:45:44.374Z,1.30
2023-05-10T14:48:16.335Z,0.90
2023-05-10T14:50:46.059Z,0.77
2023-05-10T14:53:14.447Z,0.70
2023-05-10T14:55:42.716Z,0.97
2023-05-10T14:58:10.822Z,1.00
2023-05-10T15:00:38.953Z,1.90
2023-05-10T15:03:07.800Z,0.87
2023-05-10T15:05:38.209Z,1.13
2023-05-10T15:08:08.184Z,0.90
2023-05-10T15:10:36.310Z,1.10
2023-05-10T15:13:06.056Z,0.83
2023-05-10T15:15:34.293Z,1.10
2023-05-10T15:18:02.538Z,1.30
2023-05-10T15:20:30.808Z,1.03
2023-05-10T15:22:58.953Z,1.20
2023-05-10T15:25:29.681Z,1.20
2023-05-10T15:27:57.822Z,1.50
2023-05-10T15:30:26.089Z,1.10
2023-05-10T15:32:54.590Z,1.20
2023-05-10T15:35:23.289Z,1.43
2023-05-10T15:37:51.590Z,0.90
2023-05-10T15:40:19.858Z,0.90
2023-05-10T15:42:49.372Z,1.13
2023-05-10T15:45:17.859Z,1.20
2023-05-10T15:47:46.399Z,0.93
2023-05-10T15:50:14.668Z,1.10
2023-05-10T15:52:43.230Z,1.10
2023-05-10T15:55:13.128Z,1.27
2023-05-10T15:57:42.505Z,1.47
2023-05-10T16:00:13.978Z,1.33
2023-05-10T16:02:42.615Z,1.57
2023-05-10T16:05:11.233Z,1.30
2023-05-10T16:07:40.161Z,1.23
2023-05-10T16:10:10.676Z,2.10
2023-05-10T16:12:40.413Z,1.70
2023-05-10T16:15:09.857Z,1.50
2023-05-10T16:17:39.508Z,1.57
2023-05-10T16:20:08.996Z,1.20
2023-05-10T16:22:37.275Z,1.20
2023-05-10T16:25:06.311Z,1.33
2023-05-10T16:27:34.514Z,0.97
2023-05-10T16:30:03.029Z,1.70
2023-05-10T16:32:31.590Z,1.13
2023-05-10T16:35:01.550Z,1.53
2023-05-10T16:37:29.732Z,1.73
2023-05-10T16:39:57.942Z,1.17
2023-05-10T16:42:26.116Z,1.43
2023-05-10T16:44:55.236Z,1.83
2023-05-10T16:47:26.507Z,1.20
2023-05-10T16:49:54.665Z,1.90
2023-05-10T16:52:24.479Z,1.70
2023-05-10T16:54:52.660Z,1.70
2023-05-10T16:57:20.866Z,1.50
2023-05-10T16:59:49.270Z,1.60
2023-05-10T17:02:17.554Z,2.10
2023-05-10T17:04:46.170Z,2.10
2023-05-10T17:07:14.753Z,1.73
2023-05-10T17:09:44.856Z,2.43
2023-05-10T17:12:13.039Z,2.03
2023-05-10T17:14:41.196Z,2.63
2023-05-10T17:17:09.399Z,2.50
2023-05-10T17:19:37.622Z,2.00
2023-05-10T17:22:05.852Z,2.03
2023-05-10T17:24:34.025Z,1.90
2023-05-10T17:27:04.334Z,1.77
2023-05-10T17:29:32.798Z,2.40
2023-05-10T17:32:01.106Z,2.10
2023-05-10T17:34:29.377Z,1.90
2023-05-10T17:36:57.955Z,2.20
2023-05-10T17:39:26.077Z,1.90
2023-05-10T17:41:54.242Z,1.97
2023-05-10T17:44:24.830Z,1.63
2023-05-10T17:46:52.981Z,1.70
2023-05-10T17:49:21.128Z,2.23
2023-05-10T17:51:49.248Z,2.10
2023-05-10T17:54:17.912Z,1.53
2023-05-10T17:56:46.184Z,1.80
2023-05-10T17:59:14.371Z,1.40
2023-05-10T18:01:44.330Z,1.40
2023-05-10T18:04:12.703Z,1.60
2023-05-10T18:06:41.576Z,1.60
2023-05-10T18:09:09.778Z,1.40
2023-05-10T18:11:38.752Z,1.73
2023-05-10T18:14:06.920Z,1.40
2023-05-10T18:16:35.118Z,1.47
2023-05-10T18:19:04.783Z,1.90
2023-05-10T18:21:32.971Z,2.00
2023-05-10T18:24:01.498Z,1.60
2023-05-10T18:26:29.958Z,1.97
2023-05-10T18:29:01.536Z,1.63
2023-05-10T18:31:30.052Z,1.60
2023-05-10T18:33:58.598Z,2.20
2023-05-10T18:36:28.634Z,2.07
2023-05-10T18:38:56.856Z,4.87
2023-05-10T18:41:26.715Z,2.30
2023-05-10T18:43:54.923Z,2.30
2023-05-10T18:46:23.109Z,1.67
2023-05-10T18:48:51.580Z,2.60
2023-05-10T18:51:20.363Z,2.60
2023-05-10T18:53:50.013Z,2.90
2023-05-10T18:56:18.202Z,3.10
2023-05-10T18:58:46.466Z,3.00
2023-05-10T19:01:14.625Z,3.97
2023-05-10T19:03:42.791Z,3.80
2023-05-10T19:06:10.939Z,3.77
2023-05-10T19:08:39.065Z,4.03
2023-05-10T19:11:08.598Z,3.53
2023-05-10T19:13:36.824Z,4.37
2023-05-10T19:16:06.502Z,3.60
2023-05-10T19:18:34.956Z,4.20
2023-05-10T19:21:04.586Z,4.10
2023-05-10T19:23:34.352Z,5.37
2023-05-10T19:26:02.696Z,4.00
2023-05-10T19:28:32.335Z,5.30
2023-05-10T19:31:00.660Z,3.30
2023-05-10T19:33:28.970Z,3.47
2023-05-10T19:35:57.219Z,2.90
2023-05-10T19:38:26.311Z,2.87
2023-05-10T19:40:58.064Z,3.20
2023-05-10T19:43:26.787Z,5.20
2023-05-10T19:45:59.373Z,5.40
2023-05-10T19:48:28.065Z,3.40
2023-05-10T19:51:01.202Z,4.27
2023-05-10T19:53:29.726Z,2.60
2023-05-10T19:56:03.233Z,2.70
2023-05-10T19:58:31.424Z,3.73
2023-05-10T20:01:00.987Z,3.90
2023-05-10T20:03:29.523Z,4.30
2023-05-10T20:05:57.738Z,6.80
2023-05-10T20:08:40.652Z,6.70
2023-05-10T20:11:08.963Z,7.30
2023-05-10T20:13:37.097Z,7.47
2023-05-10T20:16:07.096Z,7.83
2023-05-10T20:18:35.286Z,7.33
2023-05-10T20:21:03.477Z,7.80
2023-05-10T20:23:31.664Z,9.50
2023-05-10T20:25:59.832Z,7.67
2023-05-10T20:28:28.828Z,9.30
2023-05-10T20:30:57.365Z,9.20
2023-05-10T20:33:26.873Z,9.20
2023-05-10T20:35:54.960Z,8.83
2023-05-10T20:38:23.149Z,9.40
2023-05-10T20:40:51.274Z,10.43
2023-05-10T20:43:21.232Z,8.57
2023-05-10T20:45:49.604Z,8.30
2023-05-10T20:48:17.917Z,8.73
2023-05-10T20:50:47.428Z,7.67
2023-05-10T20:53:15.564Z,8.80
2023-05-10T20:55:43.660Z,8.40
2023-05-10T20:58:11.770Z,8.83
2023-05-10T21:00:39.842Z,8.70
2023-05-10T21:03:08.228Z,8.50
2023-05-10T21:05:36.370Z,9.10
2023-05-10T21:08:06.432Z,9.43
2023-05-10T21:10:34.623Z,9.63
2023-05-10T21:13:02.783Z,10.00
2023-05-10T21:15:31.017Z,9.10
2023-05-10T21:18:00.059Z,9.47
2023-05-10T21:20:28.471Z,9.53
2023-05-10T21:22:56.619Z,9.53
2023-05-10T21:25:26.247Z,10.07
2023-05-10T21:27:54.383Z,9.47
2023-05-10T21:30:22.561Z,9.73
2023-05-10T21:32:50.860Z,10.23
2023-05-10T21:35:19.267Z,9.57
2023-05-10T21:37:47.452Z,9.50
2023-05-10T21:40:16.182Z,9.87
2023-05-10T21:42:49.137Z,10.23
2023-05-10T21:45:17.427Z,10.13
2023-05-10T21:47:45.598Z,9.97
2023-05-10T21:50:13.936Z,11.40
2023-05-10T21:52:42.133Z,9.73
2023-05-10T21:55:11.165Z,9.90
2023-05-10T21:57:39.304Z,10.40
2023-05-10T22:00:11.148Z,11.30
2023-05-10T22:02:39.328Z,10.40
2023-05-10T22:05:07.783Z,10.97
2023-05-10T22:07:35.907Z,10.30
2023-05-10T22:10:04.038Z,10.07
2023-05-10T22:12:32.156Z,11.00
2023-05-10T22:17:38.938Z,9.50
2023-05-10T22:20:08.565Z,10.37
2023-05-10T22:22:37.481Z,12.23
2023-05-10T22:25:07.120Z,10.60
2023-05-10T22:27:35.504Z,10.30
2023-05-10T22:30:03.823Z,10.73
2023-05-10T22:32:32.795Z,11.70
2023-05-10T22:35:02.348Z,10.80
2023-05-10T22:37:30.590Z,10.47
2023-05-10T22:39:58.718Z,9.97
2023-05-10T22:42:27.049Z,11.10
2023-05-10T22:44:55.169Z,10.57
2023-05-10T22:47:23.281Z,10.70
2023-05-10T22:49:51.381Z,11.33
2023-05-10T22:52:20.849Z,10.30
2023-05-10T22:54:49.006Z,11.30
2023-05-10T22:57:17.284Z,10.83
2023-05-10T22:59:45.470Z,9.60
2023-05-10T23:02:14.145Z,7.90
2023-05-10T23:04:42.516Z,6.13
2023-05-10T23:07:11.448Z,5.50
2023-05-10T23:09:40.952Z,4.13
2023-05-10T23:12:09.080Z,4.40
2023-05-10T23:14:37.190Z,4.47
2023-05-10T23:17:05.375Z,4.67
2023-05-10T23:19:33.481Z,4.23
2023-05-10T23:22:01.609Z,3.23
2023-05-10T23:24:30.134Z,3.10
2023-05-10T23:26:59.600Z,2.13
2023-05-10T23:29:27.774Z,2.10
2023-05-10T23:31:55.975Z,2.10
2023-05-10T23:34:24.208Z,2.23
2023-05-10T23:36:52.324Z,2.97
2023-05-10T23:39:20.738Z,2.40
2023-05-10T23:41:48.936Z,2.27
2023-05-10T23:44:18.431Z,2.53
2023-05-10T23:46:46.677Z,2.40
2023-05-10T23:49:14.799Z,2.80
2023-05-10T23:51:42.906Z,3.27
2023-05-10T23:54:11.098Z,3.37
2023-05-10T23:56:39.294Z,2.10
2023-05-10T23:59:07.394Z,2.20
